createdAt,value
2019-02-06T00:01:05.488Z,20.17
2019-02-06T00:03:34.421Z,19.10
2019-02-06T00:06:03.387Z,18.87
2019-02-06T00:08:32.414Z,19.23
2019-02-06T00:11:01.274Z,18.53
2019-02-06T00:13:30.505Z,17.33
2019-02-06T00:15:59.392Z,18.37
2019-02-06T00:18:28.309Z,17.93
2019-02-06T00:20:57.204Z,18.73
2019-02-06T00:23:26.049Z,18.70
2019-02-06T00:25:54.895Z,19.03
2019-02-06T00:28:23.677Z,19.43
2019-02-06T00:30:52.954Z,18.87
2019-02-06T00:33:21.828Z,17.80
2019-02-06T00:35:50.729Z,18.47
2019-02-06T00:38:19.530Z,18.67
2019-02-06T00:40:48.450Z,18.90
2019-02-06T00:43:17.243Z,18.00
2019-02-06T00:45:46.385Z,18.63
2019-02-06T00:48:15.293Z,18.63
2019-02-06T00:50:44.004Z,18.50
2019-02-06T00:53:12.763Z,19.57
2019-02-06T00:55:41.626Z,19.27
2019-02-06T00:58:10.479Z,18.80
2019-02-06T01:00:39.729Z,19.90
2019-02-06T01:03:08.794Z,20.83
2019-02-06T01:05:38.848Z,20.67
2019-02-06T01:08:07.990Z,22.27
2019-02-06T01:10:36.905Z,22.77
2019-02-06T01:13:05.829Z,23.33
2019-02-06T01:15:34.660Z,23.60
2019-02-06T01:18:03.793Z,24.70
2019-02-06T01:20:32.530Z,22.97
2019-02-06T01:23:01.310Z,24.07
2019-02-06T01:25:30.201Z,24.53
2019-02-06T01:27:59.000Z,24.80
2019-02-06T01:30:29.423Z,22.90
2019-02-06T01:32:58.890Z,23.43
2019-02-06T01:35:27.645Z,24.07
2019-02-06T01:37:56.383Z,22.90
2019-02-06T01:40:25.260Z,23.20
2019-02-06T01:42:54.051Z,22.27
2019-02-06T01:45:23.037Z,21.97
2019-02-06T01:47:51.921Z,21.67
2019-02-06T01:50:20.804Z,20.03
2019-02-06T01:52:49.523Z,20.27
2019-02-06T01:55:18.368Z,19.33
2019-02-06T01:57:47.172Z,17.20
2019-02-06T02:00:24.305Z,17.07
2019-02-06T02:02:53.571Z,16.93
2019-02-06T02:05:23.509Z,17.57
2019-02-06T02:07:52.501Z,17.13
2019-02-06T02:10:21.755Z,15.77
2019-02-06T02:12:50.918Z,15.63
2019-02-06T02:15:20.623Z,14.87
2019-02-06T02:17:49.563Z,14.73
2019-02-06T02:20:20.342Z,16.00
2019-02-06T02:22:49.179Z,14.80
2019-02-06T02:25:18.377Z,13.73
2019-02-06T02:27:47.215Z,12.60
2019-02-06T02:30:26.123Z,14.00
2019-02-06T02:32:54.926Z,14.43
2019-02-06T02:35:23.784Z,14.23
2019-02-06T02:37:52.659Z,14.83
2019-02-06T02:40:21.567Z,14.50
2019-02-06T02:42:50.382Z,14.30
2019-02-06T02:45:19.735Z,14.50
2019-02-06T02:47:48.880Z,14.87
2019-02-06T02:50:17.682Z,14.73
2019-02-06T02:52:46.569Z,14.67
2019-02-06T02:55:15.591Z,13.67
2019-02-06T02:57:44.409Z,14.57
2019-02-06T03:00:20.675Z,15.30
2019-02-06T03:03:07.419Z,14.47
2019-02-06T03:05:36.721Z,15.23
2019-02-06T03:08:05.860Z,14.53
2019-02-06T03:10:34.658Z,14.43
2019-02-06T03:13:03.747Z,14.67
2019-02-06T03:15:32.480Z,15.13
2019-02-06T03:18:01.256Z,15.73
2019-02-06T03:20:29.937Z,15.43
2019-02-06T03:22:58.732Z,15.10
2019-02-06T03:25:27.565Z,15.13
2019-02-06T03:27:56.393Z,15.77
2019-02-06T03:30:25.271Z,15.30
2019-02-06T03:32:53.969Z,16.70
2019-02-06T03:35:22.838Z,16.47
2019-02-06T03:37:51.645Z,16.73
2019-02-06T03:40:20.426Z,16.17
2019-02-06T03:42:49.238Z,15.23
2019-02-06T03:45:18.477Z,16.73
2019-02-06T03:47:47.143Z,16.47
2019-02-06T03:50:20.170Z,15.87
2019-02-06T03:52:48.998Z,16.90
2019-02-06T03:55:17.913Z,15.47
2019-02-06T03:57:47.045Z,16.83
2019-02-06T04:00:22.274Z,15.97
2019-02-06T04:02:51.201Z,15.23
2019-02-06T04:05:20.067Z,16.90
2019-02-06T04:07:48.898Z,16.83
2019-02-06T04:10:19.041Z,16.40
2019-02-06T04:12:47.993Z,17.40
2019-02-06T04:15:17.472Z,16.83
2019-02-06T04:17:46.371Z,15.80
2019-02-06T04:20:18.671Z,17.47
2019-02-06T04:22:47.409Z,18.20
2019-02-06T04:25:16.501Z,18.57
2019-02-06T04:27:45.342Z,17.17
2019-02-06T04:30:18.467Z,17.07
2019-02-06T04:32:47.369Z,16.97
2019-02-06T04:35:17.108Z,17.47
2019-02-06T04:37:45.923Z,17.30
2019-02-06T04:40:17.690Z,16.83
2019-02-06T04:42:46.976Z,16.10
2019-02-06T04:45:18.027Z,16.63
2019-02-06T04:47:47.135Z,16.40
2019-02-06T04:50:19.822Z,14.93
2019-02-06T04:52:48.421Z,15.13
2019-02-06T04:55:18.397Z,16.00
2019-02-06T04:57:47.583Z,17.10
2019-02-06T05:00:26.923Z,16.47
2019-02-06T05:02:55.890Z,17.73
2019-02-06T05:05:24.679Z,17.30
2019-02-06T05:07:53.364Z,16.57
2019-02-06T05:10:22.159Z,16.10
2019-02-06T05:12:51.043Z,17.93
2019-02-06T05:15:19.964Z,17.60
2019-02-06T05:17:48.861Z,16.23
2019-02-06T05:20:32.580Z,17.90
2019-02-06T05:23:01.482Z,18.23
2019-02-06T05:25:30.153Z,17.83
2019-02-06T05:27:59.038Z,18.07
2019-02-06T05:30:28.018Z,17.60
2019-02-06T05:32:56.780Z,18.53
2019-02-06T05:35:25.610Z,19.90
2019-02-06T05:37:54.540Z,19.37
2019-02-06T05:40:23.773Z,20.43
2019-02-06T05:42:52.971Z,21.13
2019-02-06T05:45:21.888Z,20.23
2019-02-06T05:47:50.633Z,21.37
2019-02-06T05:50:19.717Z,21.23
2019-02-06T05:52:48.662Z,22.70
2019-02-06T05:55:18.272Z,20.80
2019-02-06T05:57:47.977Z,20.07
2019-02-06T06:00:23.520Z,21.73
2019-02-06T06:02:52.325Z,21.40
2019-02-06T06:05:21.187Z,20.57
2019-02-06T06:07:50.000Z,20.93
2019-02-06T06:10:19.576Z,21.40
2019-02-06T06:12:48.629Z,21.43
2019-02-06T06:15:19.540Z,21.93
2019-02-06T06:17:48.411Z,23.20
2019-02-06T06:20:19.928Z,22.23
2019-02-06T06:22:48.896Z,22.03
2019-02-06T06:25:19.968Z,22.90
2019-02-06T06:27:49.078Z,22.43
2019-02-06T06:30:20.091Z,22.33
2019-02-06T06:32:48.973Z,20.97
2019-02-06T06:35:17.915Z,23.30
2019-02-06T06:37:57.607Z,22.70
2019-02-06T06:40:22.156Z,23.50
2019-02-06T06:42:51.435Z,23.83
2019-02-06T06:45:22.965Z,23.37
2019-02-06T06:47:51.776Z,24.77
2019-02-06T06:50:23.118Z,25.77
2019-02-06T06:52:52.285Z,30.07
2019-02-06T06:55:21.293Z,27.67
2019-02-06T06:57:50.187Z,24.30
2019-02-06T07:00:21.751Z,24.30
2019-02-06T07:02:50.606Z,20.43
2019-02-06T07:05:19.428Z,20.80
2019-02-06T07:07:48.215Z,19.43
2019-02-06T07:10:17.853Z,18.23
2019-02-06T07:12:46.650Z,17.30
2019-02-06T07:15:26.888Z,16.60
2019-02-06T07:17:55.810Z,16.67
2019-02-06T07:20:24.740Z,17.47
2019-02-06T07:22:53.681Z,17.10
2019-02-06T07:25:22.635Z,15.67
2019-02-06T07:27:51.478Z,15.67
2019-02-06T07:30:25.913Z,15.27
2019-02-06T07:32:54.882Z,16.20
2019-02-06T07:35:23.923Z,14.97
2019-02-06T07:37:52.693Z,13.83
2019-02-06T07:40:22.356Z,14.50
2019-02-06T07:42:51.152Z,14.67
2019-02-06T07:45:21.156Z,14.27
2019-02-06T07:47:50.003Z,14.93
2019-02-06T07:50:30.093Z,14.93
2019-02-06T07:52:59.340Z,14.97
2019-02-06T07:55:28.132Z,15.10
2019-02-06T07:57:56.934Z,13.40
2019-02-06T08:00:25.801Z,13.87
2019-02-06T08:02:55.975Z,13.33
2019-02-06T08:05:24.727Z,14.50
2019-02-06T08:07:53.982Z,15.50
2019-02-06T08:10:28.517Z,15.27
2019-02-06T08:12:57.686Z,15.03
2019-02-06T08:15:26.467Z,15.07
2019-02-06T08:17:55.142Z,11.37
2019-02-06T08:20:25.023Z,13.10
2019-02-06T08:22:54.315Z,14.10
2019-02-06T08:25:24.217Z,14.07
2019-02-06T08:27:53.043Z,14.37
2019-02-06T08:30:33.780Z,13.30
2019-02-06T08:33:02.746Z,12.33
2019-02-06T08:35:32.004Z,12.90
2019-02-06T08:38:00.826Z,13.37
2019-02-06T08:40:31.391Z,13.00
2019-02-06T08:43:00.279Z,12.73
2019-02-06T08:45:29.259Z,13.10
2019-02-06T08:47:58.169Z,16.33
2019-02-06T08:50:27.508Z,17.37
2019-02-06T08:52:56.481Z,18.07
2019-02-06T08:55:30.661Z,16.67
2019-02-06T08:58:00.023Z,15.03
2019-02-06T09:00:31.542Z,19.43
2019-02-06T09:03:00.918Z,19.97
2019-02-06T09:05:30.052Z,18.50
2019-02-06T09:07:58.923Z,16.50
2019-02-06T09:10:29.544Z,16.23
2019-02-06T09:12:59.123Z,12.93
2019-02-06T09:15:28.232Z,12.40
2019-02-06T09:17:57.271Z,14.60
2019-02-06T09:20:27.376Z,12.77
2019-02-06T09:22:56.672Z,12.77
2019-02-06T09:25:29.226Z,11.60
2019-02-06T09:27:58.090Z,11.43
2019-02-06T09:30:28.924Z,9.87
2019-02-06T09:32:57.953Z,10.77
2019-02-06T09:35:27.147Z,11.43
2019-02-06T09:37:55.950Z,11.70
2019-02-06T09:40:26.799Z,9.83
2019-02-06T09:42:55.641Z,10.10
2019-02-06T09:45:24.619Z,11.67
2019-02-06T09:47:53.563Z,12.17
2019-02-06T09:50:28.478Z,11.47
2019-02-06T09:52:57.371Z,8.77
2019-02-06T09:55:26.206Z,8.60
2019-02-06T09:57:54.999Z,9.03
2019-02-06T10:00:32.066Z,16.47
2019-02-06T10:03:01.324Z,18.40
2019-02-06T10:05:30.289Z,11.83
2019-02-06T10:07:59.144Z,15.07
2019-02-06T10:10:28.685Z,12.93
2019-02-06T10:12:57.714Z,16.17
2019-02-06T10:15:29.210Z,12.10
2019-02-06T10:17:58.156Z,16.27
2019-02-06T10:20:29.974Z,10.50
2019-02-06T10:22:59.096Z,16.37
2019-02-06T10:25:28.290Z,22.97
2019-02-06T10:27:57.120Z,17.27
2019-02-06T10:30:37.963Z,21.80
2019-02-06T10:33:06.889Z,8.00
2019-02-06T10:35:35.703Z,9.53
2019-02-06T10:38:04.785Z,14.97
2019-02-06T10:40:33.624Z,37.17
2019-02-06T10:43:02.414Z,15.33
2019-02-06T10:45:31.317Z,12.93
2019-02-06T10:48:00.029Z,14.83
2019-02-06T10:50:31.976Z,15.67
2019-02-06T10:53:00.947Z,17.30
2019-02-06T10:55:29.873Z,17.77
2019-02-06T10:57:58.658Z,19.30
2019-02-06T11:00:36.261Z,34.00
2019-02-06T11:03:05.929Z,15.13
2019-02-06T11:05:35.079Z,10.40
2019-02-06T11:08:04.816Z,17.60
2019-02-06T11:10:33.617Z,14.50
2019-02-06T11:13:02.630Z,11.23
2019-02-06T11:15:31.955Z,13.73
2019-02-06T11:18:00.849Z,9.73
2019-02-06T11:20:32.770Z,10.90
2019-02-06T11:23:01.604Z,20.50
2019-02-06T11:25:30.463Z,14.97
2019-02-06T11:27:59.308Z,13.07
2019-02-06T11:30:31.204Z,9.10
2019-02-06T11:33:00.123Z,15.83
2019-02-06T11:35:28.973Z,13.70
2019-02-06T11:37:57.679Z,13.80
2019-02-06T11:40:26.569Z,14.80
2019-02-06T11:42:55.616Z,11.70
2019-02-06T11:45:32.326Z,11.97
2019-02-06T11:48:01.385Z,17.70
2019-02-06T11:50:38.537Z,16.83
2019-02-06T11:53:09.001Z,15.53
2019-02-06T11:55:37.889Z,14.27
2019-02-06T11:58:07.431Z,16.50
2019-02-06T12:00:54.847Z,16.70
2019-02-06T12:03:23.779Z,13.87
2019-02-06T12:05:52.695Z,12.07
2019-02-06T12:08:21.879Z,14.13
2019-02-06T12:10:51.174Z,15.63
2019-02-06T12:13:19.963Z,13.53
2019-02-06T12:15:48.763Z,12.07
2019-02-06T12:18:17.722Z,11.67
2019-02-06T12:20:46.677Z,16.80
2019-02-06T12:23:15.528Z,19.13
2019-02-06T12:25:44.767Z,17.33
2019-02-06T12:28:13.462Z,12.27
2019-02-06T12:30:42.628Z,14.33
2019-02-06T12:33:11.521Z,15.30
2019-02-06T12:35:40.596Z,14.00
2019-02-06T12:38:09.443Z,24.07
2019-02-06T12:40:38.697Z,43.07
2019-02-06T12:43:10.591Z,22.77
2019-02-06T12:45:38.511Z,14.77
2019-02-06T12:48:07.559Z,29.63
2019-02-06T12:50:36.299Z,24.93
2019-02-06T12:53:05.588Z,21.50
2019-02-06T12:55:39.501Z,16.57
2019-02-06T12:58:09.016Z,24.37
2019-02-06T13:00:41.001Z,19.70
2019-02-06T13:03:09.841Z,19.83
2019-02-06T13:05:38.688Z,22.47
2019-02-06T13:08:07.986Z,20.10
2019-02-06T13:10:36.801Z,20.00
2019-02-06T13:13:06.152Z,19.93
2019-02-06T13:15:35.370Z,23.27
2019-02-06T13:18:04.858Z,52.10
2019-02-06T13:20:35.897Z,38.60
2019-02-06T13:23:05.884Z,32.33
2019-02-06T13:25:34.928Z,32.27
2019-02-06T13:28:04.076Z,26.63
2019-02-06T13:30:39.339Z,24.23
2019-02-06T13:33:11.622Z,23.23
2019-02-06T13:35:39.329Z,40.73
2019-02-06T13:38:08.343Z,33.80
2019-02-06T13:40:45.188Z,24.60
2019-02-06T13:43:07.663Z,23.23
2019-02-06T13:45:42.737Z,26.30
2019-02-06T13:48:11.587Z,24.07
2019-02-06T13:50:40.579Z,20.00
2019-02-06T13:53:09.408Z,21.00
2019-02-06T13:55:38.259Z,17.93
2019-02-06T13:58:19.169Z,16.33
2019-02-06T14:00:40.848Z,19.13
2019-02-06T14:03:09.761Z,14.40
2019-02-06T14:05:39.426Z,17.20
2019-02-06T14:08:10.872Z,16.57
2019-02-06T14:10:39.574Z,20.67
2019-02-06T14:13:08.521Z,18.93
2019-02-06T14:15:40.220Z,17.37
2019-02-06T14:18:10.190Z,16.80
2019-02-06T14:20:39.450Z,14.93
2019-02-06T14:23:11.448Z,14.93
2019-02-06T14:25:53.597Z,16.53
2019-02-06T14:28:44.527Z,15.33
2019-02-06T14:31:37.114Z,16.43
2019-02-06T14:34:25.131Z,16.50
2019-02-06T14:37:21.525Z,15.40
2019-02-06T14:40:08.530Z,18.70
2019-02-06T14:43:05.343Z,20.53
2019-02-06T14:45:56.729Z,18.47
2019-02-06T14:48:43.474Z,20.10
2019-02-06T14:51:18.158Z,19.77
2019-02-06T14:54:01.738Z,22.60
2019-02-06T14:56:33.473Z,24.13
2019-02-06T14:59:10.820Z,25.90
2019-02-06T15:01:45.260Z,20.87
2019-02-06T15:04:22.667Z,24.87
2019-02-06T15:07:03.382Z,34.97
2019-02-06T15:10:10.245Z,28.07
2019-02-06T15:12:48.532Z,41.60
2019-02-06T15:15:56.362Z,35.00
2019-02-06T15:18:34.541Z,47.07
2019-02-06T15:21:15.033Z,84.20
2019-02-06T15:24:04.867Z,59.73
2019-02-06T15:26:42.250Z,39.07
2019-02-06T15:29:29.427Z,41.47
2019-02-06T15:32:26.870Z,30.57
2019-02-06T15:35:16.910Z,30.20
2019-02-06T15:37:52.374Z,39.33
2019-02-06T15:40:39.374Z,36.20
2019-02-06T15:43:16.306Z,42.10
2019-02-06T15:46:16.695Z,54.10
2019-02-06T15:49:09.704Z,49.30
2019-02-06T15:51:53.412Z,48.10
2019-02-06T15:54:49.521Z,55.13
2019-02-06T15:57:33.583Z,54.50
2019-02-06T16:00:24.909Z,55.53
2019-02-06T16:03:06.589Z,54.03
2019-02-06T16:05:55.993Z,55.13
2019-02-06T16:08:34.160Z,62.03
2019-02-06T16:11:42.606Z,57.37
2019-02-06T16:14:33.328Z,82.93
2019-02-06T16:17:24.971Z,71.10
2019-02-06T16:20:05.168Z,77.20
2019-02-06T16:22:36.948Z,81.03
2019-02-06T16:25:23.848Z,69.07
2019-02-06T16:28:18.658Z,66.23
2019-02-06T16:31:02.282Z,69.17
2019-02-06T16:33:57.619Z,63.70
2019-02-06T16:36:58.541Z,71.33
2019-02-06T16:39:33.263Z,56.90
2019-02-06T16:42:23.268Z,75.40
2019-02-06T16:44:58.174Z,64.13
2019-02-06T16:47:45.837Z,80.73
2019-02-06T16:50:24.545Z,67.60
2019-02-06T16:52:56.399Z,74.80
2019-02-06T16:55:57.217Z,91.17
2019-02-06T16:58:51.877Z,97.50
2019-02-06T17:01:32.372Z,103.57
2019-02-06T17:04:13.587Z,75.17
2019-02-06T17:06:56.110Z,86.50
2019-02-06T17:09:46.158Z,66.10
2019-02-06T17:12:33.238Z,51.37
2019-02-06T17:15:33.496Z,62.23
2019-02-06T17:18:07.799Z,52.80
2019-02-06T17:20:59.207Z,66.43
2019-02-06T17:23:30.891Z,84.10
2019-02-06T17:26:08.041Z,74.87
2019-02-06T17:28:42.621Z,71.57
2019-02-06T17:31:26.565Z,77.47
2019-02-06T17:34:15.897Z,76.73
2019-02-06T17:36:53.721Z,87.00
2019-02-06T17:39:48.467Z,67.90
2019-02-06T17:42:32.245Z,66.87
2019-02-06T17:45:27.975Z,57.93
2019-02-06T17:47:59.905Z,79.40
2019-02-06T17:50:46.879Z,82.27
2019-02-06T17:53:24.609Z,64.33
2019-02-06T17:55:53.562Z,68.10
2019-02-06T17:58:22.697Z,72.67
2019-02-06T18:00:54.370Z,90.30
2019-02-06T18:03:23.223Z,96.23
2019-02-06T18:05:52.003Z,86.93
2019-02-06T18:08:20.813Z,71.20
2019-02-06T18:10:49.703Z,62.50
2019-02-06T18:13:18.449Z,64.77
2019-02-06T18:15:47.726Z,61.27
2019-02-06T18:18:16.621Z,62.53
2019-02-06T18:20:45.899Z,58.63
2019-02-06T18:23:14.678Z,48.83
2019-02-06T18:25:43.728Z,57.90
2019-02-06T18:28:12.688Z,58.70
2019-02-06T18:30:41.730Z,55.50
2019-02-06T18:33:10.917Z,53.77
2019-02-06T18:35:39.790Z,63.70
2019-02-06T18:38:09.056Z,54.13
2019-02-06T18:40:40.102Z,65.30
2019-02-06T18:43:09.102Z,67.73
2019-02-06T18:45:37.831Z,66.03
2019-02-06T18:48:10.841Z,69.00
2019-02-06T18:50:40.963Z,69.17
2019-02-06T18:53:09.857Z,76.87
2019-02-06T18:55:38.965Z,86.27
2019-02-06T18:58:08.912Z,79.87
2019-02-06T19:00:43.089Z,62.30
2019-02-06T19:03:17.684Z,73.77
2019-02-06T19:05:46.916Z,71.60
2019-02-06T19:08:15.939Z,68.97
2019-02-06T19:10:45.101Z,81.40
2019-02-06T19:13:14.188Z,89.73
2019-02-06T19:15:43.063Z,81.50
2019-02-06T19:18:11.965Z,73.53
2019-02-06T19:20:40.896Z,82.57
2019-02-06T19:23:09.740Z,84.13
2019-02-06T19:25:38.698Z,93.43
2019-02-06T19:28:07.679Z,93.50
2019-02-06T19:30:42.132Z,81.03
2019-02-06T19:33:10.905Z,77.77
2019-02-06T19:35:39.830Z,77.53
2019-02-06T19:38:08.836Z,62.63
2019-02-06T19:40:37.693Z,62.63
2019-02-06T19:43:06.690Z,55.70
2019-02-06T19:45:35.903Z,62.27
2019-02-06T19:48:15.210Z,58.87
2019-02-06T19:50:41.351Z,54.20
2019-02-06T19:53:10.250Z,59.63
2019-02-06T19:55:39.014Z,56.60
2019-02-06T19:58:09.798Z,55.53
2019-02-06T20:00:39.778Z,54.90
2019-02-06T20:03:08.931Z,59.30
2019-02-06T20:05:37.827Z,48.30
2019-02-06T20:08:07.791Z,45.67
2019-02-06T20:10:39.548Z,51.63
2019-02-06T20:13:11.385Z,48.20
2019-02-06T20:15:38.833Z,43.93
2019-02-06T20:18:08.069Z,45.97
2019-02-06T20:20:37.101Z,47.47
2019-02-06T20:23:06.084Z,46.90
2019-02-06T20:25:34.771Z,45.87
2019-02-06T20:28:03.667Z,42.90
2019-02-06T20:30:33.820Z,47.33
2019-02-06T20:33:02.719Z,45.67
2019-02-06T20:35:31.651Z,45.50
2019-02-06T20:38:00.964Z,50.77
2019-02-06T20:40:38.465Z,45.53
2019-02-06T20:43:08.324Z,46.57
2019-02-06T20:45:37.253Z,49.27
2019-02-06T20:48:06.215Z,55.53
2019-02-06T20:50:36.374Z,51.03
2019-02-06T20:53:06.243Z,58.90
2019-02-06T20:55:35.105Z,56.83
2019-02-06T20:58:04.314Z,52.10
2019-02-06T21:00:38.359Z,52.47
2019-02-06T21:03:08.946Z,51.63
2019-02-06T21:05:37.702Z,46.17
2019-02-06T21:08:06.556Z,48.70
2019-02-06T21:10:36.527Z,46.93
2019-02-06T21:13:06.205Z,48.73
2019-02-06T21:15:35.138Z,45.80
2019-02-06T21:18:03.962Z,42.80
2019-02-06T21:20:32.790Z,46.00
2019-02-06T21:23:02.365Z,41.20
2019-02-06T21:25:31.382Z,43.07
2019-02-06T21:28:00.289Z,44.60
2019-02-06T21:30:42.685Z,44.10
2019-02-06T21:33:11.639Z,41.13
2019-02-06T21:35:40.905Z,42.77
2019-02-06T21:38:09.973Z,43.33
2019-02-06T21:40:39.165Z,46.93
2019-02-06T21:43:08.383Z,42.40
2019-02-06T21:45:37.851Z,44.10
2019-02-06T21:48:07.114Z,40.03
2019-02-06T21:50:36.452Z,38.37
2019-02-06T21:53:05.593Z,45.83
2019-02-06T21:55:34.846Z,40.60
2019-02-06T21:58:04.175Z,43.97
2019-02-06T22:00:36.191Z,47.80
2019-02-06T22:03:06.544Z,41.83
2019-02-06T22:05:35.749Z,48.07
2019-02-06T22:08:05.316Z,42.93
2019-02-06T22:10:34.434Z,45.37
2019-02-06T22:13:03.884Z,48.77
2019-02-06T22:15:33.371Z,49.90
2019-02-06T22:18:02.741Z,52.97
2019-02-06T22:20:31.765Z,82.50
2019-02-06T22:23:00.625Z,83.13
2019-02-06T22:25:29.379Z,100.73
2019-02-06T22:27:58.128Z,101.50
2019-02-06T22:30:28.950Z,94.47
2019-02-06T22:32:58.209Z,98.23
2019-02-06T22:35:27.297Z,77.70
2019-02-06T22:37:56.190Z,85.77
2019-02-06T22:40:26.082Z,105.80
2019-02-06T22:42:55.119Z,93.90
2019-02-06T22:45:26.113Z,86.23
2019-02-06T22:47:55.851Z,64.90
2019-02-06T22:50:26.580Z,55.73
2019-02-06T22:52:55.427Z,69.77
2019-02-06T22:55:24.218Z,76.17
2019-02-06T22:57:53.088Z,68.70
2019-02-06T23:00:44.749Z,68.40
2019-02-06T23:03:13.617Z,56.90
2019-02-06T23:05:42.475Z,62.73
2019-02-06T23:08:11.321Z,61.80
2019-02-06T23:10:40.124Z,73.40
2019-02-06T23:13:09.426Z,70.53
2019-02-06T23:15:38.586Z,74.93
2019-02-06T23:18:07.522Z,61.97
2019-02-06T23:20:36.361Z,51.03
2019-02-06T23:23:05.399Z,63.07
2019-02-06T23:25:34.234Z,47.37
2019-02-06T23:28:03.036Z,63.87
2019-02-06T23:30:32.368Z,66.13
2019-02-06T23:33:01.219Z,62.27
2019-02-06T23:35:29.978Z,64.10
2019-02-06T23:37:58.902Z,71.20
2019-02-06T23:40:27.584Z,52.20
2019-02-06T23:42:56.319Z,59.47
2019-02-06T23:45:25.476Z,46.27
2019-02-06T23:47:54.219Z,53.23
2019-02-06T23:50:23.025Z,52.30
2019-02-06T23:52:51.978Z,50.93
2019-02-06T23:55:20.832Z,51.97
2019-02-06T23:57:49.615Z,47.90
